Time;durP1;ratioP1;P1;durP2;ratioP2;P2;SDS_P1;SDS_P2;PMS_P1;PMS_P2;Temp;Humidity;BMP_temperature;BMP_pressure;BME280_temperature;BME280_humidity;BME280_pressure;Samples;Min_cycle;Max_cycle;Signal;HPM_P1;HPM_P2
2021/12/26 00:01:38;;;;;;;215.60;117.10;;;;;;;-9.11;75.37;97651.84;106124;1324;138859;-57
2021/12/26 00:04:07;;;;;;;209.40;112.70;;;;;;;-9.10;75.48;97652.67;106247;1322;22358;-60
2021/12/26 00:06:35;;;;;;;185.90;104.10;;;;;;;-9.06;75.54;97656.80;106187;1322;139211;-60
2021/12/26 00:09:03;;;;;;;186.90;104.90;;;;;;;-9.06;75.48;97654.13;106283;1322;23422;-59
2021/12/26 00:11:31;;;;;;;198.50;112.20;;;;;;;-8.99;75.49;97660.08;106235;1323;22479;-59
2021/12/26 00:13:59;;;;;;;209.00;121.60;;;;;;;-8.99;75.34;97659.23;106220;1324;23179;-58
2021/12/26 00:16:28;;;;;;;222.70;132.90;;;;;;;-9.01;75.21;97660.73;106276;1322;22477;-60
2021/12/26 00:18:58;;;;;;;225.00;127.70;;;;;;;-9.08;74.79;97659.48;106195;1325;22473;-60
2021/12/26 00:21:27;;;;;;;213.20;118.60;;;;;;;-9.29;74.02;97655.27;106249;1323;23047;-59
2021/12/26 00:23:57;;;;;;;206.00;120.80;;;;;;;-9.61;73.80;97657.88;106260;1323;22420;-60
2021/12/26 00:26:38;;;;;;;207.40;123.30;;;;;;;-9.96;73.96;97653.22;106251;1323;22282;-58
2021/12/26 00:29:06;;;;;;;217.00;127.90;;;;;;;-10.19;73.96;97654.07;106318;1323;23233;-60
2021/12/26 00:31:34;;;;;;;204.60;117.70;;;;;;;-10.39;74.09;97653.24;106275;1323;22386;-60
2021/12/26 00:34:04;;;;;;;190.50;114.50;;;;;;;-10.57;74.21;97648.45;106291;1323;22398;-60
2021/12/26 00:36:32;;;;;;;179.10;106.00;;;;;;;-10.67;74.11;97655.13;106246;1323;22370;-60
2021/12/26 00:39:00;;;;;;;148.10;87.90;;;;;;;-10.69;74.47;97651.91;106178;1324;22544;-59
2021/12/26 00:41:29;;;;;;;115.50;76.50;;;;;;;-10.64;75.01;97648.77;106055;1323;139187;-59
2021/12/26 00:43:57;;;;;;;90.10;69.00;;;;;;;-10.59;74.98;97644.66;106237;1324;23184;-59
2021/12/26 00:46:25;;;;;;;106.90;75.00;;;;;;;-10.49;75.28;97650.23;106170;1323;23149;-60
2021/12/26 00:48:53;;;;;;;158.70;104.60;;;;;;;-10.41;74.84;97646.55;106277;1323;22289;-60
2021/12/26 00:51:22;;;;;;;135.80;84.00;;;;;;;-10.42;74.18;97648.21;106247;1323;23213;-59
2021/12/26 00:53:51;;;;;;;108.20;73.40;;;;;;;-10.52;73.80;97654.20;106237;1322;22392;-58
2021/12/26 00:56:19;;;;;;;84.80;63.60;;;;;;;-10.60;73.98;97658.83;106227;1323;22519;-59
2021/12/26 00:58:48;;;;;;;66.30;55.80;;;;;;;-10.61;74.87;97664.73;106262;1323;22515;-60
2021/12/26 01:01:17;;;;;;;63.90;53.40;;;;;;;-10.53;74.97;97655.88;106247;1323;22511;-60
2021/12/26 01:03:46;;;;;;;74.10;66.10;;;;;;;-10.50;74.88;97645.17;106193;1323;22624;-60
2021/12/26 01:06:14;;;;;;;54.60;48.20;;;;;;;-10.41;75.44;97646.71;106275;1323;22488;-60
2021/12/26 01:08:43;;;;;;;55.50;46.70;;;;;;;-10.32;75.81;97648.26;106205;1324;22441;-60
2021/12/26 01:11:32;;;;;;;58.70;52.70;;;;;;;-10.21;75.82;97649.09;106233;1323;22472;-61
2021/12/26 01:14:05;;;;;;;48.80;43.50;;;;;;;-10.12;75.98;97646.83;106275;1322;22476;-61
2021/12/26 01:16:49;;;;;;;41.70;36.10;;;;;;;-10.01;75.77;97640.81;106255;1324;22413;-60
2021/12/26 01:19:26;;;;;;;42.50;34.80;;;;;;;-9.93;75.90;97639.52;106212;1323;22366;-60
2021/12/26 01:21:56;;;;;;;44.10;38.80;;;;;;;-9.83;75.90;97637.88;106243;1323;22554;-60
2021/12/26 01:24:24;;;;;;;44.20;37.60;;;;;;;-9.69;76.06;97635.73;106187;1323;22403;-61
2021/12/26 01:26:54;;;;;;;39.50;35.40;;;;;;;-9.56;75.96;97633.36;106206;1323;23348;-60
2021/12/26 01:29:30;;;;;;;43.30;38.70;;;;;;;-9.43;75.99;97632.16;106108;1323;139234;-61
2021/12/26 01:31:58;;;;;;;37.40;31.20;;;;;;;-9.27;76.01;97629.66;106209;1323;23226;-62
2021/12/26 01:35:02;;;;;;;42.50;35.70;;;;;;;-9.12;76.24;97632.89;105882;1326;22521;-60
2021/12/26 01:37:54;;;;;;;37.80;33.60;;;;;;;-9.02;75.70;97631.27;106007;1326;22287;-60
2021/12/26 01:40:44;;;;;;;39.10;34.50;;;;;;;-8.99;75.74;97632.45;106029;1324;23163;-59
2021/12/26 01:43:25;;;;;;;46.70;41.80;;;;;;;-8.99;75.39;97626.50;106283;1322;22408;-59
2021/12/26 01:46:00;;;;;;;49.70;44.70;;;;;;;-9.06;75.30;97626.17;106024;1324;22622;-59
2021/12/26 01:48:29;;;;;;;40.00;35.00;;;;;;;-9.22;75.29;97626.20;106034;1326;22499;-60
2021/12/26 01:50:57;;;;;;;41.70;37.30;;;;;;;-9.28;75.37;97617.08;106032;1325;252053;-60
2021/12/26 01:53:36;;;;;;;35.90;32.00;;;;;;;-9.30;75.84;97613.57;106033;1326;23450;-62
2021/12/26 01:56:13;;;;;;;43.20;38.30;;;;;;;-9.29;76.02;97616.44;106040;1326;22309;-60
2021/12/26 01:58:41;;;;;;;42.70;37.40;;;;;;;-9.30;75.82;97614.00;106007;1326;22706;-59
2021/12/26 02:01:33;;;;;;;52.00;46.40;;;;;;;-9.42;74.91;97614.47;106195;1326;22371;-60
2021/12/26 02:04:02;;;;;;;45.10;40.30;;;;;;;-9.56;74.43;97616.80;106060;1326;139537;-59
2021/12/26 02:06:31;;;;;;;44.70;39.90;;;;;;;-9.69;74.42;97616.55;106058;1326;22454;-61
2021/12/26 02:08:59;;;;;;;44.30;39.70;;;;;;;-9.80;74.40;97618.42;106224;1326;23110;-61
2021/12/26 02:11:27;;;;;;;36.90;33.00;;;;;;;-9.90;74.72;97618.66;106030;1326;22465;-60
2021/12/26 02:13:56;;;;;;;31.60;28.40;;;;;;;-9.94;74.76;97620.88;106166;1326;23553;-60
2021/12/26 02:16:25;;;;;;;35.60;31.80;;;;;;;-9.90;75.23;97622.41;106161;1326;22393;-61
2021/12/26 02:18:54;;;;;;;35.80;32.10;;;;;;;-9.77;75.60;97619.96;106176;1325;22612;-60
2021/12/26 02:21:46;;;;;;;32.10;28.10;;;;;;;-9.65;75.98;97625.13;106249;1326;22482;-61
2021/12/26 02:24:24;;;;;;;31.80;28.40;;;;;;;-9.50;75.95;97623.23;106019;1326;22569;-59
2021/12/26 02:29:44;;;;;;;29.30;26.20;;;;;;;-9.38;75.63;97622.88;106219;1325;22525;-60
2021/12/26 02:32:15;;;;;;;29.10;25.50;;;;;;;-9.31;75.35;97619.16;105999;1326;22414;-59
2021/12/26 02:34:43;;;;;;;28.50;24.40;;;;;;;-9.25;75.35;97621.66;106172;1324;22445;-60
2021/12/26 02:37:11;;;;;;;29.60;25.70;;;;;;;-9.19;75.54;97615.92;106266;1323;22570;-60
2021/12/26 02:39:38;;;;;;;29.20;26.00;;;;;;;-9.17;75.27;97615.06;106136;1324;22484;-60
2021/12/26 02:42:09;;;;;;;26.50;23.80;;;;;;;-9.15;75.37;97613.73;106200;1323;23229;-61
2021/12/26 02:44:37;;;;;;;32.90;29.70;;;;;;;-9.05;75.81;97616.42;106256;1323;22414;-59
2021/12/26 02:47:05;;;;;;;23.90;21.40;;;;;;;-8.97;75.83;97617.18;106203;1324;22500;-61
2021/12/26 02:49:33;;;;;;;26.50;23.80;;;;;;;-8.85;76.04;97616.80;106260;1323;22407;-61
2021/12/26 02:52:01;;;;;;;27.90;24.70;;;;;;;-8.66;76.39;97610.63;106196;1323;22618;-59
2021/12/26 02:54:29;;;;;;;28.30;25.20;;;;;;;-8.53;76.34;97615.65;106243;1323;22571;-59
2021/12/26 02:56:57;;;;;;;28.70;25.60;;;;;;;-8.47;76.22;97615.59;105996;1323;22474;-60
2021/12/26 02:59:31;;;;;;;25.30;22.00;;;;;;;-8.45;75.96;97616.74;106198;1323;22427;-59
2021/12/26 03:01:59;;;;;;;29.10;25.90;;;;;;;-8.48;75.80;97615.42;106222;1323;22514;-59
2021/12/26 03:04:28;;;;;;;28.10;25.00;;;;;;;-8.52;75.84;97613.48;106197;1323;23104;-59
2021/12/26 03:07:02;;;;;;;51.90;44.00;;;;;;;-8.55;75.65;97617.96;106265;1323;22594;-61
2021/12/26 03:09:34;;;;;;;64.20;52.50;;;;;;;-8.63;75.58;97620.11;106279;1323;22491;-60
2021/12/26 03:12:02;;;;;;;63.60;51.80;;;;;;;-8.74;75.43;97621.42;106285;1323;22413;-60
2021/12/26 03:14:30;;;;;;;41.80;33.80;;;;;;;-8.89;75.18;97621.73;106183;1323;23351;-58
2021/12/26 03:17:01;;;;;;;39.90;32.00;;;;;;;-9.03;75.09;97622.64;106250;1323;23339;-61
2021/12/26 03:19:35;;;;;;;24.80;21.90;;;;;;;-9.11;75.11;97629.15;106229;1323;22533;-59
2021/12/26 03:22:04;;;;;;;21.70;19.20;;;;;;;-9.20;74.86;97631.80;106213;1324;23012;-60
2021/12/26 03:24:32;;;;;;;19.00;17.00;;;;;;;-9.24;74.90;97631.50;106231;1323;22471;-59
2021/12/26 03:27:03;;;;;;;19.30;17.00;;;;;;;-9.20;75.24;97631.70;106292;1323;22499;-59
2021/12/26 03:29:32;;;;;;;18.40;16.00;;;;;;;-9.16;75.22;97637.33;106277;1323;23257;-59
2021/12/26 03:32:02;;;;;;;24.10;21.20;;;;;;;-9.12;75.33;97630.86;106191;1323;22581;-60
2021/12/26 03:34:30;;;;;;;25.60;23.00;;;;;;;-9.07;75.33;97632.50;106242;1323;22585;-60
2021/12/26 03:36:58;;;;;;;22.70;20.30;;;;;;;-9.00;75.39;97636.05;106193;1323;22465;-60
2021/12/26 03:39:27;;;;;;;20.60;18.50;;;;;;;-8.92;75.74;97636.61;106198;1323;22521;-59
2021/12/26 03:41:55;;;;;;;22.60;17.40;;;;;;;-8.77;75.85;97637.98;106044;1326;22399;-60
2021/12/26 03:44:24;;;;;;;18.70;16.10;;;;;;;-8.69;75.43;97638.41;106218;1323;23106;-60
2021/12/26 03:46:52;;;;;;;21.70;19.50;;;;;;;-8.59;75.63;97642.52;106236;1323;22405;-59
2021/12/26 03:49:21;;;;;;;25.20;22.60;;;;;;;-8.53;75.54;97639.29;106217;1323;22511;-60
2021/12/26 03:51:49;;;;;;;34.90;30.80;;;;;;;-8.52;75.41;97637.25;106257;1323;22612;-62
2021/12/26 03:54:17;;;;;;;46.00;40.90;;;;;;;-8.58;74.71;97638.73;106189;1323;23136;-60
2021/12/26 03:56:45;;;;;;;32.60;28.80;;;;;;;-8.75;74.49;97639.10;106235;1323;22494;-60
2021/12/26 03:59:16;;;;;;;31.80;27.60;;;;;;;-8.84;75.03;97643.36;106201;1323;23193;-61
2021/12/26 04:01:45;;;;;;;35.90;32.10;;;;;;;-8.97;74.74;97646.29;106205;1323;23276;-61
2021/12/26 04:04:13;;;;;;;36.00;32.10;;;;;;;-9.16;74.43;97644.94;106148;1323;22480;-60
2021/12/26 04:06:42;;;;;;;42.20;37.60;;;;;;;-9.29;74.63;97649.87;106204;1325;22434;-60
2021/12/26 04:09:11;;;;;;;45.10;40.40;;;;;;;-9.42;74.77;97649.77;106238;1322;23218;-60
2021/12/26 04:11:42;;;;;;;33.60;30.00;;;;;;;-9.52;74.54;97646.23;106247;1323;22390;-60
2021/12/26 04:14:11;;;;;;;33.30;29.90;;;;;;;-9.62;74.27;97655.05;106276;1323;22413;-60
2021/12/26 04:16:41;;;;;;;33.70;30.30;;;;;;;-9.65;74.76;97659.22;106249;1323;23143;-60
2021/12/26 04:19:09;;;;;;;36.10;32.40;;;;;;;-9.62;74.97;97663.39;106174;1323;22382;-60
2021/12/26 04:21:37;;;;;;;30.50;27.30;;;;;;;-9.61;74.67;97660.70;106199;1324;22318;-60
2021/12/26 04:24:06;;;;;;;26.30;23.50;;;;;;;-9.65;74.55;97658.73;106251;1323;22584;-60
2021/12/26 04:26:34;;;;;;;27.10;24.20;;;;;;;-9.70;74.22;97659.63;106174;1324;22575;-60
2021/12/26 04:29:03;;;;;;;28.40;25.30;;;;;;;-9.76;74.40;97662.30;106244;1323;23075;-60
2021/12/26 04:31:31;;;;;;;28.10;24.90;;;;;;;-9.80;74.48;97662.32;106259;1323;23031;-60
2021/12/26 04:33:59;;;;;;;33.60;28.40;;;;;;;-9.80;74.57;97662.88;106198;1324;22485;-60
2021/12/26 04:36:28;;;;;;;33.30;29.60;;;;;;;-9.88;74.23;97657.01;106266;1323;22434;-60
2021/12/26 04:38:56;;;;;;;40.10;34.80;;;;;;;-9.82;74.44;97669.02;106189;1323;23352;-60
2021/12/26 04:41:25;;;;;;;45.60;40.10;;;;;;;-9.77;74.79;97671.35;106186;1323;22276;-60
2021/12/26 04:44:12;;;;;;;42.50;36.80;;;;;;;-9.69;74.83;97674.77;106178;1323;22479;-59
2021/12/26 04:46:52;;;;;;;34.10;29.30;;;;;;;-9.64;74.92;97678.39;106191;1323;22658;-59
2021/12/26 04:49:25;;;;;;;29.90;26.60;;;;;;;-9.61;74.69;97684.10;106237;1323;22312;-59
2021/12/26 04:51:53;;;;;;;31.60;28.00;;;;;;;-9.66;74.00;97686.26;106205;1324;23692;-57
2021/12/26 04:54:24;;;;;;;44.20;37.00;;;;;;;-9.75;73.73;97688.75;106223;1324;22399;-59
2021/12/26 04:56:53;;;;;;;43.90;37.20;;;;;;;-9.82;73.87;97690.20;105828;1327;22581;-59
2021/12/26 04:59:21;;;;;;;50.50;43.20;;;;;;;-9.84;74.16;97688.20;106168;1323;23365;-59
2021/12/26 05:01:49;;;;;;;51.30;45.70;;;;;;;-9.85;74.40;97686.53;106231;1323;22440;-59
2021/12/26 05:04:17;;;;;;;57.10;46.40;;;;;;;-9.86;74.23;97691.86;106261;1323;23133;-60
2021/12/26 05:06:46;;;;;;;58.80;49.90;;;;;;;-9.87;74.32;97692.84;106277;1323;22494;-59
2021/12/26 05:09:14;;;;;;;64.10;55.20;;;;;;;-9.86;74.55;97684.07;106243;1323;22430;-59
2021/12/26 05:11:42;;;;;;;73.10;58.00;;;;;;;-9.75;74.57;97693.27;106274;1323;22431;-59
2021/12/26 05:14:10;;;;;;;62.40;48.80;;;;;;;-9.71;74.76;97684.08;106248;1323;23356;-59
2021/12/26 05:16:39;;;;;;;59.00;49.50;;;;;;;-9.64;74.74;97687.41;106314;1323;22485;-59
2021/12/26 05:19:10;;;;;;;71.20;63.30;;;;;;;-9.54;75.06;97689.30;106237;1319;22538;-60
2021/12/26 05:21:38;;;;;;;57.10;47.70;;;;;;;-9.47;74.92;97686.86;106054;1323;22411;-59
2021/12/26 05:24:06;;;;;;;52.00;43.40;;;;;;;-9.48;74.24;97688.20;106304;1323;22379;-60
2021/12/26 05:26:34;;;;;;;65.00;56.70;;;;;;;-9.64;73.49;97686.02;106269;1323;23215;-59
2021/12/26 05:29:02;;;;;;;65.90;57.20;;;;;;;-9.77;73.62;97682.21;106172;1323;22397;-59
2021/12/26 05:31:30;;;;;;;61.80;54.00;;;;;;;-9.93;73.19;97682.98;106252;1323;22398;-59
2021/12/26 05:33:59;;;;;;;70.00;57.80;;;;;;;-10.08;73.29;97679.56;106166;1324;22612;-59
2021/12/26 05:36:27;;;;;;;69.40;57.50;;;;;;;-10.21;73.44;97680.60;106280;1323;22394;-59
2021/12/26 05:38:56;;;;;;;75.70;61.10;;;;;;;-10.32;73.44;97681.92;106235;1323;22503;-59
2021/12/26 05:41:25;;;;;;;73.80;58.20;;;;;;;-10.31;74.22;97680.77;106138;1323;22293;-59
2021/12/26 05:44:04;;;;;;;70.50;59.50;;;;;;;-10.19;74.69;97680.19;106176;1323;23221;-60
2021/12/26 05:46:33;;;;;;;74.50;59.60;;;;;;;-10.18;73.90;97680.73;106255;1323;22661;-59
2021/12/26 05:49:02;;;;;;;96.60;68.00;;;;;;;-10.22;73.76;97679.59;106155;1323;22586;-59
2021/12/26 05:51:39;;;;;;;75.80;62.70;;;;;;;-10.26;73.85;97678.39;106256;1323;22394;-59
2021/12/26 05:54:25;;;;;;;112.30;72.90;;;;;;;-10.34;73.65;97683.35;106261;1322;23106;-59
2021/12/26 05:56:54;;;;;;;95.70;65.90;;;;;;;-10.45;73.33;97683.39;106199;1323;23150;-58
2021/12/26 05:59:22;;;;;;;101.40;69.50;;;;;;;-10.54;73.81;97682.00;106194;1322;22392;-58
2021/12/26 06:01:51;;;;;;;83.90;65.10;;;;;;;-10.49;74.02;97684.79;106196;1323;22482;-59
2021/12/26 06:04:21;;;;;;;77.40;60.00;;;;;;;-10.44;74.37;97682.97;106242;1324;23161;-59
2021/12/26 06:06:49;;;;;;;57.30;50.40;;;;;;;-10.31;74.63;97681.08;106179;1324;22381;-59
2021/12/26 06:09:18;;;;;;;57.80;50.80;;;;;;;-10.20;74.62;97683.94;106179;1324;22345;-59
2021/12/26 06:11:47;;;;;;;52.20;43.40;;;;;;;-10.07;74.92;97686.92;106016;1324;22512;-59
2021/12/26 06:14:16;;;;;;;50.70;44.30;;;;;;;-9.90;75.11;97688.54;106153;1323;22612;-59
2021/12/26 06:16:44;;;;;;;47.20;41.30;;;;;;;-9.73;75.01;97685.38;106178;1323;22477;-59
2021/12/26 06:19:41;;;;;;;46.40;40.70;;;;;;;-9.55;74.89;97691.13;105940;1324;22661;-58
2021/12/26 06:22:28;;;;;;;60.40;50.60;;;;;;;-9.55;74.34;97692.36;106245;1323;22478;-58
2021/12/26 06:25:16;;;;;;;50.10;44.60;;;;;;;-9.59;74.23;97691.62;106278;1323;22478;-59
2021/12/26 06:27:51;;;;;;;49.40;44.00;;;;;;;-9.61;74.52;97694.93;106022;1323;22423;-59
2021/12/26 06:30:19;;;;;;;106.20;86.10;;;;;;;-9.56;74.50;97697.03;106271;1323;22488;-59
2021/12/26 06:33:17;;;;;;;41.00;36.80;;;;;;;-9.59;74.17;97695.04;105884;1324;22528;-59
2021/12/26 06:36:04;;;;;;;58.10;49.60;;;;;;;-9.60;74.22;97695.83;106297;1323;22569;-60
2021/12/26 06:38:51;;;;;;;59.80;53.40;;;;;;;-9.51;74.65;97694.02;106281;1323;22725;-59
2021/12/26 06:41:38;;;;;;;50.60;45.10;;;;;;;-9.40;75.20;97695.95;106280;1323;23292;-60
2021/12/26 06:44:30;;;;;;;46.90;41.80;;;;;;;-9.38;74.34;97699.94;106002;1324;22500;-59
2021/12/26 06:47:18;;;;;;;49.70;42.30;;;;;;;-9.46;73.96;97703.02;106276;1323;22540;-60
2021/12/26 06:49:52;;;;;;;48.70;44.00;;;;;;;-9.53;74.24;97703.10;106216;1324;22995;-60
2021/12/26 06:52:20;;;;;;;45.50;40.90;;;;;;;-9.49;74.39;97701.88;106002;1323;22988;-59
2021/12/26 06:54:48;;;;;;;46.30;41.60;;;;;;;-9.41;74.81;97706.07;106278;1323;22405;-60
2021/12/26 06:57:17;;;;;;;48.90;43.80;;;;;;;-9.35;74.72;97707.26;106186;1323;22358;-59
2021/12/26 06:59:45;;;;;;;46.50;41.70;;;;;;;-9.34;74.21;97710.24;106290;1323;22487;-59
2021/12/26 07:02:13;;;;;;;59.90;53.30;;;;;;;-9.34;74.03;97710.28;106261;1323;22421;-59
2021/12/26 07:04:49;;;;;;;58.20;51.80;;;;;;;-9.32;74.72;97710.23;106169;1324;22369;-59
2021/12/26 07:07:20;;;;;;;67.50;59.10;;;;;;;-9.22;74.93;97712.23;106215;1323;22373;-58
2021/12/26 07:09:48;;;;;;;85.60;66.20;;;;;;;-9.08;75.02;97722.20;106263;1323;22472;-58
2021/12/26 07:12:18;;;;;;;101.40;71.60;;;;;;;-8.97;74.88;97721.67;106232;1323;22513;-60
2021/12/26 07:14:57;;;;;;;112.20;82.40;;;;;;;-8.89;75.20;97719.70;106183;1324;22493;-59
2021/12/26 07:17:26;;;;;;;115.70;81.20;;;;;;;-8.83;75.07;97720.91;106249;1324;22280;-59
2021/12/26 07:20:07;;;;;;;114.80;82.30;;;;;;;-8.82;74.87;97723.38;106183;1324;22299;-59
2021/12/26 07:23:17;;;;;;;135.40;94.10;;;;;;;-8.85;74.81;97719.75;106299;1323;22490;-59
2021/12/26 07:26:00;;;;;;;128.70;92.70;;;;;;;-8.88;74.99;97722.91;106254;1324;22903;-59
2021/12/26 07:28:45;;;;;;;114.80;90.40;;;;;;;-8.98;75.10;97732.02;106219;1324;23269;-59
2021/12/26 07:31:13;;;;;;;121.00;98.70;;;;;;;-9.06;74.86;97731.98;106281;1323;22542;-59
2021/12/26 07:33:43;;;;;;;120.30;94.30;;;;;;;-9.14;74.93;97733.56;106013;1323;23019;-59
2021/12/26 07:36:11;;;;;;;88.10;77.30;;;;;;;-9.21;74.96;97730.20;106172;1323;22466;-60
2021/12/26 07:38:46;;;;;;;93.90;78.80;;;;;;;-9.29;74.86;97731.31;106197;1323;22695;-60
2021/12/26 07:41:25;;;;;;;107.10;86.10;;;;;;;-9.32;74.76;97733.77;106021;1324;22286;-59
2021/12/26 07:43:54;;;;;;;106.60;82.20;;;;;;;-9.33;74.76;97739.76;106193;1323;22494;-59
2021/12/26 07:46:25;;;;;;;117.10;86.80;;;;;;;-9.29;75.00;97742.91;106269;1323;22413;-60
2021/12/26 07:48:56;;;;;;;131.00;88.90;;;;;;;-9.22;75.10;97747.28;106196;1323;22740;-59
2021/12/26 07:51:44;;;;;;;115.90;87.70;;;;;;;-9.14;75.20;97749.90;106258;1323;22588;-60
2021/12/26 07:54:35;;;;;;;118.50;85.30;;;;;;;-9.05;75.02;97757.66;106304;1323;22940;-58
2021/12/26 07:57:27;;;;;;;161.70;101.00;;;;;;;-8.95;75.31;97762.45;106256;1323;23121;-59
2021/12/26 08:00:18;;;;;;;159.60;93.50;;;;;;;-8.79;75.46;97764.45;106283;1322;22464;-59
2021/12/26 08:02:59;;;;;;;174.30;104.40;;;;;;;-8.69;75.29;97762.22;106263;1324;23093;-59
2021/12/26 08:05:51;;;;;;;162.10;100.70;;;;;;;-8.60;75.15;97760.71;106255;1323;22413;-59
2021/12/26 08:08:49;;;;;;;158.30;99.20;;;;;;;-8.50;75.56;97762.23;106258;1324;22507;-59
2021/12/26 08:11:17;;;;;;;158.90;103.00;;;;;;;-8.36;75.72;97762.35;106193;1323;23120;-60
2021/12/26 08:13:45;;;;;;;159.70;106.70;;;;;;;-8.22;76.00;97764.48;106251;1323;23014;-59
2021/12/26 08:16:14;;;;;;;166.90;108.20;;;;;;;-8.11;75.82;97759.59;106295;1323;22303;-59
2021/12/26 08:18:42;;;;;;;149.60;101.60;;;;;;;-8.02;75.84;97762.67;106262;1323;22422;-59
2021/12/26 08:21:11;;;;;;;149.60;99.50;;;;;;;-7.93;75.94;97757.51;106242;1323;22418;-58
2021/12/26 08:23:39;;;;;;;103.40;82.10;;;;;;;-7.86;75.64;97754.80;106279;1323;22483;-60
2021/12/26 08:26:07;;;;;;;95.80;79.40;;;;;;;-7.82;75.72;97752.84;106263;1323;22536;-59
2021/12/26 08:28:34;;;;;;;118.30;85.50;;;;;;;-7.79;75.66;97751.17;106308;1322;22468;-59
2021/12/26 08:31:03;;;;;;;102.10;82.90;;;;;;;-7.79;75.75;97754.93;106284;1323;22430;-59
2021/12/26 08:33:31;;;;;;;90.10;77.90;;;;;;;-7.80;75.79;97756.80;106059;1326;22594;-59
2021/12/26 08:35:59;;;;;;;78.40;68.60;;;;;;;-7.80;75.91;97757.49;106270;1324;22608;-60
2021/12/26 08:38:27;;;;;;;82.90;73.90;;;;;;;-7.78;75.75;97760.24;106272;1323;23061;-59
2021/12/26 08:40:56;;;;;;;90.30;71.10;;;;;;;-7.75;75.90;97761.52;106243;1323;22518;-60
2021/12/26 08:43:25;;;;;;;97.60;73.30;;;;;;;-7.70;75.85;97758.46;106257;1323;23279;-60
2021/12/26 08:45:53;;;;;;;79.90;67.60;;;;;;;-7.63;75.76;97762.69;106260;1323;22274;-60
2021/12/26 08:48:21;;;;;;;56.30;47.90;;;;;;;-7.60;75.83;97763.27;106177;1323;23349;-60
2021/12/26 08:50:55;;;;;;;65.90;57.70;;;;;;;-7.47;75.73;97764.38;106273;1323;23354;-59
2021/12/26 08:53:25;;;;;;;82.70;64.90;;;;;;;-7.35;75.88;97765.16;106283;1320;22440;-61
2021/12/26 08:55:57;;;;;;;76.00;59.70;;;;;;;-7.24;75.93;97766.64;106260;1323;22445;-61
2021/12/26 08:58:26;;;;;;;61.80;55.10;;;;;;;-7.09;76.01;97764.45;106246;1323;23058;-61
2021/12/26 09:00:55;;;;;;;50.10;44.80;;;;;;;-6.95;75.90;97767.55;106300;1323;23136;-61
2021/12/26 09:03:24;;;;;;;49.00;43.60;;;;;;;-6.81;76.12;97768.61;106283;1323;22301;-58
2021/12/26 09:05:52;;;;;;;49.00;43.80;;;;;;;-6.69;76.16;97766.56;106318;1323;23707;-58
2021/12/26 09:08:21;;;;;;;54.80;48.90;;;;;;;-6.53;76.22;97774.27;106254;1323;22845;-59
2021/12/26 09:10:50;;;;;;;42.60;38.10;;;;;;;-6.41;76.01;97767.98;106280;1323;23022;-59
2021/12/26 09:13:18;;;;;;;42.60;38.00;;;;;;;-6.43;75.89;97771.23;106282;1323;22922;-58
2021/12/26 09:15:46;;;;;;;43.30;38.80;;;;;;;-6.43;76.10;97766.60;106296;1323;23231;-59
2021/12/26 09:18:14;;;;;;;45.60;40.60;;;;;;;-6.43;76.15;97763.30;106264;1323;22570;-59
2021/12/26 09:20:42;;;;;;;46.70;41.80;;;;;;;-6.47;76.16;97762.46;106257;1323;22589;-58
2021/12/26 09:23:10;;;;;;;40.50;36.30;;;;;;;-6.51;76.15;97762.41;106261;1324;22560;-60
2021/12/26 09:25:38;;;;;;;43.70;38.60;;;;;;;-6.49;76.34;97758.86;106302;1323;22458;-59
2021/12/26 09:28:06;;;;;;;40.20;36.00;;;;;;;-6.49;76.25;97765.52;106316;1323;22495;-59
2021/12/26 09:30:34;;;;;;;41.80;37.10;;;;;;;-6.48;76.28;97757.53;106230;1323;22680;-60
2021/12/26 09:33:02;;;;;;;42.50;38.00;;;;;;;-6.47;76.39;97763.19;106260;1323;22543;-61
2021/12/26 09:35:31;;;;;;;41.30;35.20;;;;;;;-6.49;76.45;97758.83;106315;1322;22554;-60
2021/12/26 09:38:03;;;;;;;39.20;35.10;;;;;;;-6.53;76.31;97757.83;106276;1323;22454;-60
2021/12/26 09:40:31;;;;;;;34.00;30.10;;;;;;;-6.57;76.20;97753.77;106277;1322;22525;-61
2021/12/26 09:42:59;;;;;;;39.50;34.20;;;;;;;-6.58;76.35;97751.59;106240;1323;22563;-59
2021/12/26 09:45:27;;;;;;;45.90;41.00;;;;;;;-6.53;76.32;97750.05;106306;1323;22429;-60
2021/12/26 09:47:55;;;;;;;46.90;41.80;;;;;;;-6.42;76.57;97746.30;106268;1323;23093;-60
2021/12/26 09:50:24;;;;;;;49.60;43.40;;;;;;;-6.30;76.74;97740.92;106131;1323;185766;-59
2021/12/26 09:52:53;;;;;;;43.60;38.30;;;;;;;-6.19;76.70;97734.11;106270;1323;22491;-60
2021/12/26 09:55:25;;;;;;;37.60;33.40;;;;;;;-6.10;76.60;97729.98;106289;1323;22454;-60
2021/12/26 09:57:54;;;;;;;33.90;30.30;;;;;;;-6.06;76.55;97727.27;106258;1323;22307;-59
2021/12/26 10:00:25;;;;;;;40.10;33.60;;;;;;;-6.00;76.88;97723.25;106269;1323;22276;-60
2021/12/26 10:03:15;;;;;;;38.90;34.80;;;;;;;-5.85;77.17;97719.39;106282;1323;23172;-60
2021/12/26 10:06:09;;;;;;;36.10;31.50;;;;;;;-5.67;77.12;97720.77;106260;1324;22494;-60
2021/12/26 10:08:57;;;;;;;36.50;32.90;;;;;;;-5.53;76.89;97719.48;106254;1324;22475;-60
2021/12/26 10:11:31;;;;;;;39.50;35.20;;;;;;;-5.40;77.01;97715.70;106267;1321;23136;-60
2021/12/26 10:14:07;;;;;;;38.60;34.50;;;;;;;-5.28;76.94;97712.11;106266;1323;22289;-59
2021/12/26 10:16:39;;;;;;;41.10;36.80;;;;;;;-5.15;76.88;97711.70;106296;1324;22466;-61
2021/12/26 10:19:08;;;;;;;37.70;33.70;;;;;;;-5.04;76.94;97715.39;106260;1323;22275;-60
2021/12/26 10:21:44;;;;;;;36.40;32.70;;;;;;;-4.87;76.96;97715.48;106277;1323;22488;-60
2021/12/26 10:24:24;;;;;;;39.50;35.60;;;;;;;-4.68;77.11;97713.73;106244;1323;22894;-60
2021/12/26 10:27:14;;;;;;;37.00;33.20;;;;;;;-4.49;76.99;97716.51;106293;1323;22480;-61
2021/12/26 10:29:43;;;;;;;32.20;28.70;;;;;;;-4.29;76.88;97718.58;106253;1324;22494;-60
2021/12/26 10:32:18;;;;;;;31.30;27.80;;;;;;;-4.21;76.56;97713.54;106244;1323;23429;-60
2021/12/26 10:34:49;;;;;;;35.40;31.80;;;;;;;-4.08;76.52;97717.92;106282;1323;22498;-60
2021/12/26 10:37:30;;;;;;;33.10;29.60;;;;;;;-3.96;76.48;97720.23;105964;1326;22379;-61
2021/12/26 10:40:03;;;;;;;43.80;39.10;;;;;;;-3.90;76.37;97722.78;106247;1323;22503;-60
2021/12/26 10:42:33;;;;;;;56.10;50.10;;;;;;;-3.81;76.37;97719.91;106257;1323;22492;-60
2021/12/26 10:45:09;;;;;;;53.60;48.20;;;;;;;-3.76;76.11;97722.35;106161;1323;139089;-62
2021/12/26 10:47:44;;;;;;;48.80;43.70;;;;;;;-3.78;75.70;97719.29;106256;1323;22512;-60
2021/12/26 10:50:15;;;;;;;45.30;40.80;;;;;;;-3.80;75.96;97721.96;106250;1322;22482;-60
2021/12/26 10:52:58;;;;;;;47.50;42.40;;;;;;;-3.81;75.98;97719.21;106277;1323;22495;-61
2021/12/26 10:55:39;;;;;;;44.30;39.30;;;;;;;-3.83;76.11;97723.15;106283;1323;24313;-60
2021/12/26 10:58:12;;;;;;;53.50;48.00;;;;;;;-3.84;75.99;97722.55;106278;1322;22397;-61
2021/12/26 11:00:43;;;;;;;60.30;54.20;;;;;;;-3.82;76.10;97724.35;106302;1323;22596;-61
2021/12/26 11:03:25;;;;;;;63.70;57.20;;;;;;;-3.75;76.32;97727.40;106272;1323;23216;-60
2021/12/26 11:06:02;;;;;;;39.80;35.50;;;;;;;-3.71;75.93;97730.63;106265;1323;22461;-61
2021/12/26 11:08:38;;;;;;;39.00;34.90;;;;;;;-3.69;75.96;97727.50;106244;1323;22546;-59
2021/12/26 11:11:20;;;;;;;49.40;44.00;;;;;;;-3.62;76.03;97730.34;106278;1323;22550;-60
2021/12/26 11:13:50;;;;;;;39.40;34.20;;;;;;;-3.63;75.79;97725.89;106163;1324;23145;-60
2021/12/26 11:16:18;;;;;;;39.30;35.00;;;;;;;-3.69;75.55;97727.54;106252;1323;22380;-59
2021/12/26 11:18:54;;;;;;;41.90;36.30;;;;;;;-3.75;75.30;97728.33;106287;1323;22514;-59
2021/12/26 11:21:23;;;;;;;41.30;36.80;;;;;;;-3.81;75.33;97726.54;106257;1323;22539;-60
2021/12/26 11:23:51;;;;;;;45.60;38.30;;;;;;;-3.75;75.62;97726.48;106265;1324;22436;-56
2021/12/26 11:26:20;;;;;;;43.00;38.20;;;;;;;-3.64;75.30;97724.59;106244;1323;22513;-56
2021/12/26 11:28:51;;;;;;;53.50;48.00;;;;;;;-3.41;75.17;97726.88;106265;1323;22454;-57
2021/12/26 11:31:22;;;;;;;43.40;38.80;;;;;;;-3.08;75.04;97726.30;106250;1323;23200;-57
2021/12/26 11:33:56;;;;;;;42.90;38.40;;;;;;;-2.81;74.76;97727.58;106285;1323;22911;-58